Time;durP1;ratioP1;P1;durP2;ratioP2;P2;SDS_P1;SDS_P2;PMS_P1;PMS_P2;Temp;Humidity;BMP_temperature;BMP_pressure;BME280_temperature;BME280_humidity;BME280_pressure;Samples;Min_cycle;Max_cycle;Signal;HPM_P1;HPM_P2
2022/01/25 00:26:21;;;;;;;47.90;24.15;;;4.90;99.90;;;;;;5118956;27;20057;-76
2022/01/25 00:31:38;;;;;;;46.05;24.40;;;5.00;99.90;;;;;;5121353;27;20086;-75
2022/01/25 00:34:05;;;;;;;49.20;26.10;;;4.80;99.90;;;;;;5103576;27;20118;-75
2022/01/25 00:36:31;;;;;;;51.13;26.63;;;4.70;99.90;;;;;;5113291;27;20042;-76
2022/01/25 00:38:58;;;;;;;44.50;25.38;;;4.90;99.90;;;;;;5114692;27;20038;-76
2022/01/25 00:41:25;;;;;;;48.75;25.00;;;4.70;99.90;;;;;;5096720;27;20611;-75
2022/01/25 00:43:52;;;;;;;45.50;23.77;;;5.10;99.90;;;;;;5122758;27;20161;-75
2022/01/25 00:46:21;;;;;;;49.67;25.48;;;5.00;99.90;;;;;;5099693;27;20043;-76
2022/01/25 00:48:50;;;;;;;45.38;24.63;;;4.70;99.90;;;;;;5099874;27;20488;-75
2022/01/25 00:56:19;;;;;;;50.90;26.50;;;4.90;99.90;;;;;;5134462;27;20043;-75
2022/01/25 00:58:44;;;;;;;42.08;22.52;;;4.90;99.90;;;;;;5115715;27;20042;-76
2022/01/25 01:01:10;;;;;;;50.95;26.48;;;5.00;99.90;;;;;;5122668;27;20035;-74
2022/01/25 01:03:36;;;;;;;46.38;24.35;;;4.80;99.90;;;;;;5100754;27;20461;-76
2022/01/25 01:06:03;;;;;;;46.17;22.17;;;5.10;99.90;;;;;;5097445;27;20047;-75
2022/01/25 01:08:29;;;;;;;51.35;25.60;;;5.10;99.90;;;;;;5117281;27;20049;-76
2022/01/25 01:10:57;;;;;;;51.20;25.42;;;5.30;99.90;;;;;;5114167;27;20039;-76
2022/01/25 01:13:49;;;;;;;50.00;25.38;;;4.80;99.90;;;;;;5104526;27;20054;-75
2022/01/25 01:30:06;;;;;;;47.47;25.70;;;5.10;99.90;;;;;;5116764;27;20053;-76
2022/01/25 01:43:29;;;;;;;52.30;26.67;;;4.90;99.90;;;;;;5104092;27;20468;-76
2022/01/25 01:48:36;;;;;;;48.55;24.98;;;5.00;99.90;;;;;;5118243;27;20062;-76
2022/01/25 01:51:13;;;;;;;49.95;26.90;;;5.10;99.90;;;;;;5115348;27;20083;-77
2022/01/25 01:53:40;;;;;;;50.15;27.58;;;4.80;99.90;;;;;;5114042;27;20182;-76
2022/01/25 01:56:06;;;;;;;55.72;27.33;;;5.10;99.90;;;;;;5133088;27;20483;-78
2022/01/25 01:58:35;;;;;;;52.47;26.90;;;5.30;99.90;;;;;;5134059;27;20356;-76
2022/01/25 02:01:03;;;;;;;54.80;27.85;;;5.00;99.90;;;;;;5113416;27;20039;-78
2022/01/25 02:03:29;;;;;;;51.65;27.17;;;5.20;99.90;;;;;;5132933;27;20035;-76
2022/01/25 02:05:55;;;;;;;49.72;25.45;;;5.20;99.90;;;;;;5116371;27;20054;-76
2022/01/25 02:08:21;;;;;;;54.83;27.70;;;5.10;99.90;;;;;;5116313;27;20042;-77
2022/01/25 02:10:46;;;;;;;55.35;27.23;;;5.40;99.90;;;;;;5098035;27;20038;-77
2022/01/25 02:13:12;;;;;;;52.78;26.35;;;5.00;99.90;;;;;;5115858;27;20038;-75
2022/01/25 02:15:43;;;;;;;50.95;26.95;;;5.00;99.90;;;;;;5131408;27;20035;-76
2022/01/25 02:23:32;;;;;;;49.50;25.95;;;5.20;99.90;;;;;;5128272;27;20042;-77
2022/01/25 02:26:01;;;;;;;56.55;28.77;;;5.00;99.90;;;;;;5112687;27;20652;-76
2022/01/25 02:28:30;;;;;;;56.85;30.23;;;4.90;99.90;;;;;;5115938;27;20436;-76
2022/01/25 02:30:58;;;;;;;52.85;27.27;;;5.00;99.90;;;;;;5107524;27;20050;-78
2022/01/25 02:33:24;;;;;;;55.85;28.75;;;5.20;99.90;;;;;;5112685;27;20050;-76
2022/01/25 02:35:51;;;;;;;53.10;26.67;;;5.20;99.90;;;;;;5107704;27;20402;-76
2022/01/25 02:38:28;;;;;;;47.80;26.02;;;4.90;99.90;;;;;;5103083;27;20083;-75
2022/01/25 02:40:59;;;;;;;53.50;27.63;;;5.00;99.90;;;;;;5115091;27;20046;-76
2022/01/25 02:43:26;;;;;;;53.05;26.33;;;5.20;99.90;;;;;;5109070;27;20041;-76
2022/01/25 02:48:29;;;;;;;51.88;26.42;;;5.10;99.90;;;;;;5132317;27;20564;-76
2022/01/25 02:48:55;;;;;;;50.28;25.00;;;5.10;99.90;;;;;;5115163;27;20042;-75
2022/01/25 02:51:25;;;;;;;54.30;27.23;;;5.10;99.90;;;;;;5123465;27;20037;-76
2022/01/25 02:53:50;;;;;;;53.33;26.45;;;4.90;99.90;;;;;;5108778;27;20039;-77
2022/01/25 02:56:17;;;;;;;50.50;27.27;;;5.20;99.90;;;;;;5090380;27;20099;-76
2022/01/25 02:58:44;;;;;;;50.05;26.05;;;5.10;99.90;;;;;;5130465;27;20110;-76
2022/01/25 03:01:10;;;;;;;49.72;25.92;;;5.70;99.90;;;;;;5131250;27;20027;-76
2022/01/25 03:03:37;;;;;;;49.20;26.08;;;5.20;99.90;;;;;;5109881;28;20090;-76
2022/01/25 03:06:04;;;;;;;45.22;23.50;;;5.20;99.90;;;;;;5102466;27;20122;-76
2022/01/25 03:08:30;;;;;;;45.53;24.20;;;4.90;99.90;;;;;;5131440;27;20087;-76
2022/01/25 03:10:56;;;;;;;42.10;22.88;;;5.20;99.90;;;;;;5132741;27;20070;-77
2022/01/25 03:13:28;;;;;;;44.30;22.75;;;5.00;99.90;;;;;;5117821;27;20087;-77
2022/01/25 03:15:58;;;;;;;46.78;23.92;;;4.90;99.90;;;;;;5098660;27;20031;-76
2022/01/25 03:18:39;;;;;;;45.92;23.73;;;5.20;99.90;;;;;;5117061;27;20062;-77
2022/01/25 03:21:21;;;;;;;46.67;25.45;;;5.10;99.90;;;;;;5117089;27;20035;-75
2022/01/25 03:23:48;;;;;;;47.53;24.40;;;4.90;99.90;;;;;;5119319;27;20065;-76
2022/01/25 03:26:15;;;;;;;47.63;24.08;;;5.20;99.90;;;;;;5117354;27;20122;-76
2022/01/25 03:28:40;;;;;;;52.45;27.00;;;5.20;99.90;;;;;;5133070;27;20078;-78
2022/01/25 03:31:06;;;;;;;51.30;23.45;;;4.90;99.90;;;;;;5099264;27;20467;-77
2022/01/25 03:33:32;;;;;;;52.33;26.48;;;4.90;99.90;;;;;;5129935;27;20059;-76
2022/01/25 03:35:58;;;;;;;53.00;27.40;;;4.90;99.90;;;;;;5128289;27;20057;-76
2022/01/25 03:38:23;;;;;;;50.00;25.75;;;4.90;99.90;;;;;;5110721;28;20055;-77
2022/01/25 03:40:49;;;;;;;50.10;25.25;;;5.20;99.90;;;;;;5122637;27;20067;-77
2022/01/25 03:43:18;;;;;;;51.50;26.73;;;5.00;99.90;;;;;;5098253;27;20118;-77
2022/01/25 03:45:56;;;;;;;54.17;27.02;;;4.90;99.90;;;;;;5114702;27;20228;-77
2022/01/25 03:50:50;;;;;;;52.90;28.02;;;4.80;99.90;;;;;;5130024;27;20047;-77
2022/01/25 03:53:17;;;;;;;46.10;24.90;;;4.80;99.90;;;;;;5131606;27;20043;-78
2022/01/25 03:55:43;;;;;;;52.90;25.33;;;4.90;99.90;;;;;;5114390;27;20054;-76
2022/01/25 03:58:09;;;;;;;47.75;24.90;;;5.10;99.90;;;;;;5113648;27;20039;-76
2022/01/25 04:00:36;;;;;;;50.42;26.33;;;4.90;99.90;;;;;;5132920;27;20071;-76
2022/01/25 04:03:08;;;;;;;51.33;27.77;;;5.10;99.90;;;;;;5096828;27;20035;-76
2022/01/25 04:05:38;;;;;;;51.15;25.42;;;5.20;99.90;;;;;;5116077;27;20078;-77
2022/01/25 04:08:05;;;;;;;50.55;25.40;;;4.90;99.90;;;;;;5114576;27;20116;-76
2022/01/25 04:10:31;;;;;;;49.40;24.70;;;4.80;99.90;;;;;;5115763;27;20087;-77
2022/01/25 04:12:57;;;;;;;49.95;24.88;;;5.20;99.90;;;;;;5130724;27;20538;-76
2022/01/25 04:15:23;;;;;;;47.97;24.85;;;4.80;99.90;;;;;;5092677;28;20148;-76
2022/01/25 04:17:57;;;;;;;47.42;24.83;;;5.20;99.90;;;;;;5094655;28;20039;-77
2022/01/25 04:20:28;;;;;;;42.15;22.45;;;5.10;99.90;;;;;;5099400;27;20119;-75
2022/01/25 04:25:38;;;;;;;48.58;25.30;;;4.80;99.90;;;;;;5113068;28;20047;-75
2022/01/25 04:28:04;;;;;;;42.63;22.98;;;4.90;99.90;;;;;;5120864;27;20033;-75
2022/01/25 04:30:30;;;;;;;48.72;25.23;;;5.20;99.90;;;;;;5107277;28;20031;-76
2022/01/25 04:33:05;;;;;;;49.40;24.58;;;5.20;99.90;;;;;;5130475;27;20406;-75
2022/01/25 04:49:13;;;;;;;48.17;24.55;;;5.30;99.90;;;;;;5130353;27;20092;-76
2022/01/25 05:02:51;;;;;;;49.25;25.13;;;5.20;99.90;;;;;;5116996;27;20043;-77
2022/01/25 05:04:55;;;;;;;54.17;26.95;;;5.50;99.90;;;;;;5118566;27;20043;-76
2022/01/25 05:09:53;;;;;;;52.90;26.38;;;5.20;99.90;;;;;;5104291;27;20088;-75
2022/01/25 05:12:31;;;;;;;55.92;27.17;;;4.80;99.90;;;;;;5113667;27;20043;-76
2022/01/25 05:15:05;;;;;;;52.15;27.33;;;5.10;99.90;;;;;;5113707;27;20176;-75
2022/01/25 05:17:43;;;;;;;49.42;24.67;;;4.90;99.90;;;;;;5114564;27;20046;-76
2022/01/25 05:22:53;;;;;;;49.15;24.83;;;5.10;99.90;;;;;;5116166;27;20035;-75
2022/01/25 05:25:19;;;;;;;46.17;22.88;;;5.30;99.90;;;;;;5130000;27;20042;-77
2022/01/25 05:27:44;;;;;;;50.95;27.15;;;5.30;99.90;;;;;;5128381;27;20048;-77
2022/01/25 05:30:11;;;;;;;51.80;26.65;;;5.90;99.90;;;;;;5103624;27;20091;-76
2022/01/25 05:32:36;;;;;;;50.35;25.55;;;5.30;99.90;;;;;;5128513;27;20051;-76
2022/01/25 05:35:04;;;;;;;53.08;24.88;;;4.90;99.90;;;;;;5113512;27;20398;-76
2022/01/25 05:37:32;;;;;;;52.60;27.02;;;5.10;99.90;;;;;;5129885;27;20387;-78
2022/01/25 05:40:00;;;;;;;50.22;25.58;;;5.30;99.90;;;;;;5130485;27;20044;-77
2022/01/25 05:43:58;;;;;;;50.63;26.27;;;5.00;99.90;;;;;;5128303;27;20045;-76
2022/01/25 05:45:25;;;;;;;44.17;23.25;;;4.90;99.90;;;;;;5126097;27;20043;-78
2022/01/25 05:47:51;;;;;;;50.20;25.17;;;5.40;99.90;;;;;;5125395;27;20421;-78
2022/01/25 05:50:17;;;;;;;52.15;26.77;;;5.40;99.90;;;;;;5111977;27;20054;-77
2022/01/25 05:52:42;;;;;;;57.90;26.60;;;5.00;99.90;;;;;;5130784;27;20077;-78
2022/01/25 05:55:10;;;;;;;50.53;25.48;;;5.30;99.90;;;;;;5111408;27;20085;-77
2022/01/25 05:57:36;;;;;;;49.50;25.27;;;5.10;99.90;;;;;;5125877;27;20047;-78
2022/01/25 06:00:04;;;;;;;53.92;27.85;;;5.40;99.90;;;;;;5129825;27;20047;-78
2022/01/25 06:02:31;;;;;;;47.95;24.55;;;5.40;99.90;;;;;;5128246;27;20506;-78
2022/01/25 06:04:57;;;;;;;48.58;23.48;;;5.50;99.90;;;;;;5098644;27;20111;-76
2022/01/25 06:07:23;;;;;;;49.45;24.73;;;5.00;99.90;;;;;;5112117;27;20077;-77
2022/01/25 06:09:49;;;;;;;52.88;24.75;;;5.30;99.90;;;;;;5111370;27;20057;-77
2022/01/25 06:12:15;;;;;;;55.83;27.35;;;5.10;99.90;;;;;;5110840;27;20042;-76
2022/01/25 06:14:41;;;;;;;51.40;25.92;;;5.50;99.90;;;;;;5078480;27;20045;-77
2022/01/25 06:17:07;;;;;;;45.70;23.90;;;5.40;99.90;;;;;;5076139;28;20039;-77
2022/01/25 06:19:33;;;;;;;50.25;25.27;;;5.50;99.90;;;;;;5089809;28;20042;-74
2022/01/25 06:21:58;;;;;;;46.05;25.00;;;5.20;99.90;;;;;;5111630;27;20074;-75
2022/01/25 06:24:24;;;;;;;47.83;26.23;;;5.20;99.90;;;;;;5110604;27;20111;-76
2022/01/25 06:26:50;;;;;;;51.25;25.83;;;5.30;99.90;;;;;;5130028;27;20043;-76
2022/01/25 06:29:18;;;;;;;52.42;26.58;;;5.20;99.90;;;;;;5110762;27;20039;-75
2022/01/25 06:31:46;;;;;;;50.40;27.60;;;5.20;99.90;;;;;;5131854;27;20047;-76
2022/01/25 06:34:12;;;;;;;55.28;25.98;;;5.30;99.90;;;;;;5115365;27;20135;-76
2022/01/25 06:36:38;;;;;;;52.42;26.98;;;5.60;99.90;;;;;;5109448;27;20129;-76
2022/01/25 06:39:04;;;;;;;49.58;24.95;;;5.20;99.90;;;;;;5124506;27;20035;-75
2022/01/25 06:41:32;;;;;;;46.25;25.15;;;5.90;99.90;;;;;;5121453;27;20039;-75
2022/01/25 06:43:58;;;;;;;50.40;26.88;;;6.00;99.90;;;;;;5117101;27;20038;-76
2022/01/25 06:46:24;;;;;;;50.35;24.58;;;5.60;99.90;;;;;;5126451;27;20538;-76
2022/01/25 06:48:49;;;;;;;48.28;25.35;;;5.60;99.90;;;;;;5114570;27;20394;-76
2022/01/25 06:51:15;;;;;;;55.58;26.50;;;5.40;99.90;;;;;;5117512;27;20046;-75
2022/01/25 06:53:41;;;;;;;51.42;25.25;;;5.20;99.90;;;;;;5119435;27;20129;-76
2022/01/25 06:56:06;;;;;;;56.15;27.20;;;5.60;99.90;;;;;;5118565;27;20043;-78
2022/01/25 06:58:33;;;;;;;52.00;25.60;;;5.60;99.90;;;;;;5099254;27;20049;-76
2022/01/25 07:00:58;;;;;;;57.10;27.80;;;5.60;99.90;;;;;;5115895;27;20046;-78
2022/01/25 07:03:24;;;;;;;55.90;27.20;;;6.30;99.90;;;;;;5094778;27;20045;-73
2022/01/25 07:05:50;;;;;;;48.80;25.50;;;5.30;99.90;;;;;;5113408;27;20031;-75
2022/01/25 07:08:16;;;;;;;47.72;23.83;;;5.30;99.90;;;;;;5114764;27;20491;-75
2022/01/25 07:10:41;;;;;;;52.40;27.13;;;5.30;99.90;;;;;;5114363;27;20043;-74
2022/01/25 07:13:07;;;;;;;57.60;27.95;;;5.30;99.90;;;;;;5099823;27;20067;-76
2022/01/25 07:15:33;;;;;;;54.22;27.30;;;5.60;99.90;;;;;;5097839;27;20034;-74
2022/01/25 07:17:59;;;;;;;54.00;27.38;;;5.30;99.90;;;;;;5133299;27;20138;-75
2022/01/25 07:20:25;;;;;;;54.22;26.95;;;5.30;99.90;;;;;;5132241;27;20075;-78
2022/01/25 07:22:51;;;;;;;50.03;26.02;;;5.60;99.90;;;;;;5114616;27;20046;-80
2022/01/25 07:25:18;;;;;;;56.15;27.73;;;5.70;99.90;;;;;;5121675;28;20051;-79
2022/01/25 07:27:44;;;;;;;54.28;25.90;;;5.70;99.90;;;;;;5097063;28;20078;-79
2022/01/25 07:30:12;;;;;;;48.45;24.52;;;5.70;99.90;;;;;;5082866;27;20034;-80
2022/01/25 07:32:38;;;;;;;49.63;24.73;;;5.40;99.90;;;;;;5117046;27;20078;-76
2022/01/25 07:35:05;;;;;;;46.97;24.02;;;6.00;99.90;;;;;;5114666;27;20123;-77
2022/01/25 07:37:30;;;;;;;52.67;27.35;;;5.60;99.90;;;;;;5132352;27;20045;-77
2022/01/25 07:39:57;;;;;;;54.60;27.05;;;5.30;99.90;;;;;;5098314;27;20030;-76
2022/01/25 07:42:23;;;;;;;48.85;25.20;;;5.60;99.90;;;;;;5116390;27;20066;-74
2022/01/25 07:44:49;;;;;;;55.75;27.63;;;5.40;99.90;;;;;;5130664;27;20035;-73
2022/01/25 07:47:15;;;;;;;49.08;24.55;;;5.50;99.90;;;;;;5133787;27;20043;-71
2022/01/25 07:49:41;;;;;;;48.42;24.20;;;5.40;99.90;;;;;;5131667;27;20161;-74
2022/01/25 07:52:07;;;;;;;52.67;26.42;;;5.70;99.90;;;;;;5131007;27;20062;-74
2022/01/25 07:54:33;;;;;;;53.13;26.27;;;5.30;99.90;;;;;;5115695;27;20077;-75
2022/01/25 07:56:59;;;;;;;46.13;24.90;;;5.70;99.90;;;;;;5110843;27;20073;-73
2022/01/25 07:59:25;;;;;;;55.25;26.67;;;5.40;99.90;;;;;;5115363;27;20599;-75
2022/01/25 08:01:53;;;;;;;54.25;27.88;;;5.30;99.90;;;;;;5122343;27;20630;-73
2022/01/25 08:04:19;;;;;;;51.05;25.65;;;5.70;99.90;;;;;;5094749;27;20687;-73
2022/01/25 08:06:45;;;;;;;52.00;26.30;;;5.30;99.90;;;;;;5130699;27;20046;-75
2022/01/25 08:09:11;;;;;;;47.35;23.42;;;5.40;99.90;;;;;;5127990;27;20524;-74
2022/01/25 08:11:37;;;;;;;54.38;27.60;;;5.60;99.90;;;;;;5112886;27;20087;-73
2022/01/25 08:14:16;;;;;;;48.70;24.90;;;5.40;99.90;;;;;;5112615;27;20043;-73
2022/01/25 08:16:45;;;;;;;50.35;24.77;;;5.30;99.90;;;;;;5125762;27;20038;-73
2022/01/25 08:19:12;;;;;;;46.22;23.95;;;5.40;99.90;;;;;;5110856;27;20043;-74
2022/01/25 08:21:40;;;;;;;47.30;24.60;;;5.60;99.90;;;;;;5113661;27;20125;-74
2022/01/25 08:24:07;;;;;;;53.42;25.35;;;5.60;99.90;;;;;;5111728;27;20035;-74
2022/01/25 08:26:32;;;;;;;47.17;25.02;;;5.30;99.90;;;;;;5128827;27;20053;-74
2022/01/25 08:28:58;;;;;;;51.38;27.02;;;5.40;99.90;;;;;;5111642;27;20042;-74
2022/01/25 08:31:24;;;;;;;56.25;27.52;;;5.80;99.90;;;;;;5129622;27;20138;-75
2022/01/25 08:33:49;;;;;;;49.97;25.30;;;5.80;99.90;;;;;;5095151;27;20149;-73
2022/01/25 08:36:15;;;;;;;51.47;25.05;;;5.40;99.90;;;;;;5130072;27;20058;-74
2022/01/25 08:38:41;;;;;;;52.15;24.83;;;5.30;99.90;;;;;;5129695;27;20042;-74
2022/01/25 08:41:07;;;;;;;55.28;27.08;;;5.40;99.90;;;;;;5096575;27;20035;-74
2022/01/25 08:43:34;;;;;;;54.58;26.05;;;5.90;99.90;;;;;;5111654;27;20136;-74
2022/01/25 08:46:01;;;;;;;51.45;26.73;;;5.90;99.90;;;;;;5110456;27;20447;-74
2022/01/25 08:48:27;;;;;;;53.75;25.85;;;5.80;99.90;;;;;;5112701;27;20039;-73
2022/01/25 08:50:53;;;;;;;50.80;25.13;;;5.80;99.90;;;;;;5112819;27;20103;-74
2022/01/25 08:53:18;;;;;;;53.53;26.77;;;5.50;99.90;;;;;;5091734;27;20046;-73
2022/01/25 08:55:44;;;;;;;51.88;25.00;;;5.90;99.90;;;;;;5106871;27;20054;-72
2022/01/25 08:58:10;;;;;;;47.97;24.30;;;5.90;99.90;;;;;;5092779;27;20053;-72
2022/01/25 09:00:37;;;;;;;56.78;26.92;;;5.60;99.90;;;;;;5106789;27;20417;-74
2022/01/25 09:03:03;;;;;;;54.47;27.02;;;5.80;99.90;;;;;;5129950;27;20099;-73
2022/01/25 09:05:29;;;;;;;57.65;29.70;;;5.90;99.90;;;;;;5114947;27;20047;-74
2022/01/25 09:07:57;;;;;;;60.60;28.40;;;6.10;99.90;;;;;;5125191;27;20054;-73
2022/01/25 09:10:24;;;;;;;53.45;26.05;;;5.40;99.90;;;;;;5141793;27;21070;-71
2022/01/25 09:12:49;;;;;;;51.70;26.38;;;6.00;99.90;;;;;;5112383;27;20046;-75
2022/01/25 09:15:15;;;;;;;50.45;26.08;;;5.50;99.90;;;;;;5107883;27;20042;-74
2022/01/25 09:17:41;;;;;;;52.15;26.63;;;5.60;99.90;;;;;;5118395;27;20487;-74
2022/01/25 09:20:07;;;;;;;55.95;26.48;;;5.50;99.90;;;;;;5101810;27;20049;-74
2022/01/25 09:22:33;;;;;;;49.75;25.77;;;5.60;99.90;;;;;;5095076;27;20078;-73
2022/01/25 09:24:59;;;;;;;49.75;24.60;;;6.00;99.90;;;;;;5095095;27;20503;-73
2022/01/25 09:27:24;;;;;;;51.17;26.08;;;5.60;99.90;;;;;;5127847;27;20066;-72
2022/01/25 09:29:50;;;;;;;58.40;28.25;;;6.00;99.90;;;;;;5111786;27;20047;-73
2022/01/25 09:32:18;;;;;;;55.10;26.23;;;5.90;99.90;;;;;;5128342;27;20063;-75
2022/01/25 09:34:45;;;;;;;53.88;26.25;;;5.60;99.90;;;;;;5111973;27;20137;-73
2022/01/25 09:37:10;;;;;;;57.00;28.65;;;6.10;99.90;;;;;;5094096;27;20047;-73
2022/01/25 09:39:36;;;;;;;60.65;30.65;;;5.60;99.90;;;;;;5126565;27;20041;-72
2022/01/25 09:42:07;;;;;;;59.83;27.05;;;5.80;99.90;;;;;;5132667;27;20172;-74
2022/01/25 09:44:35;;;;;;;60.58;29.30;;;5.60;99.90;;;;;;5114562;27;20314;-74
2022/01/25 09:47:01;;;;;;;53.50;26.90;;;5.60;99.90;;;;;;5130925;27;20081;-74
2022/01/25 09:49:27;;;;;;;52.22;26.45;;;5.70;99.90;;;;;;5109419;27;20075;-74
2022/01/25 09:51:55;;;;;;;58.42;28.15;;;5.60;99.90;;;;;;5111229;27;20051;-74
2022/01/25 09:54:21;;;;;;;53.13;25.63;;;6.10;99.90;;;;;;5114331;27;20593;-72
2022/01/25 09:56:47;;;;;;;57.53;28.25;;;6.20;99.90;;;;;;5096409;27;20054;-72
2022/01/25 09:59:12;;;;;;;57.20;27.33;;;5.70;99.90;;;;;;5078764;27;20036;-72
2022/01/25 10:01:38;;;;;;;65.10;29.45;;;5.80;99.90;;;;;;5126216;27;20058;-72
2022/01/25 10:04:29;;;;;;;59.38;29.17;;;5.80;99.90;;;;;;5093199;27;20043;-72
2022/01/25 10:06:55;;;;;;;53.88;26.27;;;5.80;99.90;;;;;;5125298;27;20482;-72
2022/01/25 10:09:22;;;;;;;69.78;31.60;;;6.20;99.90;;;;;;5105097;27;20042;-73
2022/01/25 10:11:49;;;;;;;60.78;27.83;;;5.80;99.90;;;;;;5106394;27;20042;-72
2022/01/25 10:14:15;;;;;;;56.25;28.75;;;5.80;99.90;;;;;;5106673;27;20103;-74
2022/01/25 10:16:43;;;;;;;56.47;27.05;;;5.80;99.90;;;;;;5107287;27;20035;-72
2022/01/25 10:19:12;;;;;;;63.13;30.02;;;6.30;99.90;;;;;;5106745;27;20043;-73
2022/01/25 10:21:43;;;;;;;57.03;28.42;;;6.30;99.90;;;;;;5120578;27;20570;-73
2022/01/25 10:24:21;;;;;;;54.60;25.35;;;6.00;99.90;;;;;;5123895;27;20038;-73
2022/01/25 10:26:57;;;;;;;53.17;26.83;;;5.90;99.90;;;;;;5124143;27;20494;-72
2022/01/25 10:29:31;;;;;;;56.55;26.83;;;6.20;99.90;;;;;;5122680;27;20542;-72
2022/01/25 10:32:00;;;;;;;63.58;30.73;;;6.00;99.90;;;;;;5122366;27;20034;-72
2022/01/25 10:34:50;;;;;;;59.55;28.70;;;6.40;99.90;;;;;;5122653;27;20058;-72
2022/01/25 10:37:19;;;;;;;56.15;26.60;;;6.30;99.90;;;;;;5122672;27;20049;-73
2022/01/25 10:39:47;;;;;;;50.42;25.63;;;6.40;99.90;;;;;;5123181;27;20519;-72
2022/01/25 10:42:19;;;;;;;54.70;26.17;;;6.40;99.90;;;;;;5117844;27;20046;-72
2022/01/25 10:44:54;;;;;;;53.20;26.00;;;6.40;99.90;;;;;;5103291;27;20619;-73
2022/01/25 10:47:41;;;;;;;54.47;26.60;;;6.00;99.90;;;;;;5085681;27;20069;-73
2022/01/25 10:50:17;;;;;;;54.90;28.08;;;5.90;99.90;;;;;;5120879;27;20065;-72
2022/01/25 10:52:45;;;;;;;54.53;27.35;;;5.90;99.90;;;;;;5105827;27;20144;-72
2022/01/25 10:55:11;;;;;;;55.00;26.35;;;6.30;99.90;;;;;;5106524;27;20043;-73
2022/01/25 10:57:38;;;;;;;51.60;26.13;;;6.00;99.90;;;;;;5123236;27;20577;-72
2022/01/25 11:00:10;;;;;;;54.50;26.10;;;6.40;99.90;;;;;;5105584;27;20042;-72
2022/01/25 11:02:48;;;;;;;52.05;24.95;;;6.00;99.90;;;;;;5121254;27;20045;-72
2022/01/25 11:05:14;;;;;;;53.38;27.02;;;6.40;99.90;;;;;;5123763;27;20050;-73
2022/01/25 11:07:44;;;;;;;54.22;26.48;;;6.00;99.90;;;;;;5112114;27;20039;-73
2022/01/25 11:10:18;;;;;;;53.83;26.17;;;6.20;99.90;;;;;;5118952;27;20041;-73
2022/01/25 11:13:11;;;;;;;56.95;26.40;;;6.00;99.90;;;;;;5110741;27;20046;-74
2022/01/25 11:15:34;;;;;;;58.22;27.67;;;6.30;99.90;;;;;;5119022;27;20080;-74
2022/01/25 11:17:59;;;;;;;51.72;25.33;;;6.20;99.90;;;;;;5106263;28;20039;-73
2022/01/25 11:20:26;;;;;;;60.58;26.88;;;6.60;99.90;;;;;;5107998;27;20091;-74
2022/01/25 11:22:54;;;;;;;59.72;28.30;;;6.50;99.90;;;;;;5127129;27;20123;-74
2022/01/25 11:25:23;;;;;;;58.70;29.70;;;5.90;99.90;;;;;;5108984;27;20038;-74
2022/01/25 11:27:50;;;;;;;51.70;25.38;;;6.10;99.90;;;;;;5109366;27;20487;-74
2022/01/25 11:30:20;;;;;;;54.10;26.00;;;6.60;99.90;;;;;;5109251;27;20125;-74
2022/01/25 11:32:49;;;;;;;54.22;26.95;;;6.10;99.90;;;;;;5129176;27;20066;-74
2022/01/25 11:35:19;;;;;;;58.28;26.80;;;6.20;99.90;;;;;;5130228;27;20042;-74
2022/01/25 11:37:48;;;;;;;66.72;29.30;;;6.20;99.90;;;;;;5096644;27;20151;-74
2022/01/25 11:40:30;;;;;;;59.05;27.40;;;6.10;99.90;;;;;;5113402;27;20521;-74
2022/01/25 11:43:16;;;;;;;53.53;26.38;;;6.50;99.90;;;;;;5130885;27;20039;-74
2022/01/25 11:45:49;;;;;;;63.00;29.52;;;6.70;99.90;;;;;;5129569;27;20031;-74
2022/01/25 11:48:22;;;;;;;58.58;27.35;;;6.30;99.90;;;;;;5130585;27;20039;-74
2022/01/25 11:50:48;;;;;;;55.10;27.63;;;6.10;99.90;;;;;;5112235;27;20042;-75
2022/01/25 11:53:16;;;;;;;52.40;25.02;;;6.60;99.90;;;;;;5129489;27;20083;-75
2022/01/25 11:55:48;;;;;;;52.00;27.23;;;6.40;99.90;;;;;;5129812;27;20049;-74
2022/01/25 11:58:15;;;;;;;54.92;28.35;;;6.30;99.90;;;;;;5113346;27;20070;-74
2022/01/25 12:00:47;;;;;;;57.72;28.60;;;6.20;99.90;;;;;;5111351;27;20043;-73
2022/01/25 12:03:38;;;;;;;52.67;26.92;;;6.40;99.90;;;;;;5130276;27;20053;-74
2022/01/25 12:06:13;;;;;;;55.75;24.65;;;6.20;99.90;;;;;;5112226;27;20046;-74
2022/01/25 12:09:08;;;;;;;54.58;26.90;;;6.30;99.90;;;;;;5129767;27;20778;-74
2022/01/25 12:11:43;;;;;;;57.17;26.77;;;6.30;99.90;;;;;;5125813;27;20054;-74
2022/01/25 12:14:21;;;;;;;56.70;26.55;;;6.40;99.90;;;;;;5129780;27;20047;-74
2022/01/25 12:16:58;;;;;;;56.10;27.08;;;6.50;99.90;;;;;;5112824;27;20445;-74
2022/01/25 12:20:16;;;;;;;57.58;28.58;;;6.60;99.90;;;;;;5128459;27;20042;-74
2022/01/25 12:22:47;;;;;;;58.65;27.30;;;6.80;99.90;;;;;;5035235;28;20530;-74
2022/01/25 12:27:46;;;;;;;54.97;26.80;;;6.70;99.90;;;;;;5066293;27;20080;-74
2022/01/25 12:30:43;;;;;;;54.00;26.83;;;6.50;99.90;;;;;;5120014;27;20039;-73
2022/01/25 12:33:20;;;;;;;58.92;27.25;;;6.40;99.90;;;;;;5128347;27;20683;-73
2022/01/25 12:36:03;;;;;;;57.13;27.48;;;6.90;99.90;;;;;;5123503;27;20086;-74
2022/01/25 12:38:47;;;;;;;57.15;26.73;;;6.40;99.90;;;;;;5129236;27;20054;-74
2022/01/25 12:41:30;;;;;;;50.75;25.83;;;6.90;99.90;;;;;;5092966;27;20065;-74
2022/01/25 12:43:58;;;;;;;60.75;29.33;;;6.80;99.90;;;;;;5102877;27;20049;-74
2022/01/25 12:46:27;;;;;;;54.03;25.17;;;6.70;99.90;;;;;;5124766;27;20057;-74
2022/01/25 12:49:10;;;;;;;57.75;27.23;;;6.60;99.90;;;;;;5112346;27;20364;-73
2022/01/25 12:51:38;;;;;;;56.15;27.80;;;6.60;99.90;;;;;;5109969;27;20054;-73
2022/01/25 12:54:10;;;;;;;53.92;25.20;;;6.60;99.90;;;;;;5128305;27;20503;-75
2022/01/25 12:56:41;;;;;;;56.72;27.88;;;6.80;99.90;;;;;;5128860;27;20498;-74
2022/01/25 12:59:13;;;;;;;56.97;27.20;;;6.80;99.90;;;;;;5128846;27;20043;-74
2022/01/25 13:01:41;;;;;;;57.50;26.92;;;6.90;99.90;;;;;;5113233;27;20050;-73
2022/01/25 13:04:09;;;;;;;54.88;26.73;;;6.50;99.90;;;;;;5128152;27;20042;-74
2022/01/25 13:06:38;;;;;;;49.60;25.63;;;6.40;99.90;;;;;;5128957;27;20414;-73
2022/01/25 13:17:03;;;;;;;55.65;28.35;;;6.80;99.90;;;;;;5125753;27;20061;-74
2022/01/25 13:19:41;;;;;;;63.70;28.17;;;6.90;99.90;;;;;;5129591;27;20444;-74
2022/01/25 13:22:32;;;;;;;57.28;27.20;;;6.70;99.90;;;;;;5127778;27;20050;-75
2022/01/25 13:27:45;;;;;;;55.75;26.13;;;6.30;99.90;;;;;;5118200;27;20094;-74
2022/01/25 13:32:57;;;;;;;52.70;24.85;;;7.00;99.90;;;;;;5107268;27;20426;-74
2022/01/25 13:35:48;;;;;;;53.78;26.27;;;6.70;99.90;;;;;;5084878;27;20070;-75
2022/01/25 13:38:19;;;;;;;59.13;27.13;;;6.60;99.90;;;;;;5127549;27;20081;-74
2022/01/25 13:46:05;;;;;;;59.40;28.15;;;6.80;99.90;;;;;;5128306;27;20050;-75
2022/01/25 13:48:33;;;;;;;64.90;29.53;;;6.80;99.90;;;;;;5110387;27;20138;-75
2022/01/25 13:51:14;;;;;;;58.45;27.13;;;6.90;99.90;;;;;;5127366;27;20075;-74
2022/01/25 13:53:41;;;;;;;64.13;29.92;;;6.40;99.90;;;;;;5124612;27;20141;-74
2022/01/25 13:56:12;;;;;;;66.32;29.75;;;6.70;99.90;;;;;;5128675;27;20157;-74
2022/01/25 13:58:43;;;;;;;70.13;31.02;;;7.10;99.90;;;;;;5110080;27;20074;-74
2022/01/25 14:01:11;;;;;;;60.05;28.85;;;6.90;99.90;;;;;;5075690;27;20043;-75
2022/01/25 14:03:39;;;;;;;55.00;28.08;;;7.00;99.90;;;;;;5090122;27;20047;-74
2022/01/25 14:06:27;;;;;;;59.53;28.00;;;6.80;99.90;;;;;;5127428;27;20039;-75
2022/01/25 14:09:23;;;;;;;55.03;25.65;;;6.30;99.90;;;;;;5110016;27;20111;-74
2022/01/25 14:23:24;;;;;;;55.55;27.45;;;7.00;99.90;;;;;;5127928;27;20106;-75
2022/01/25 14:26:02;;;;;;;53.55;26.00;;;6.50;99.90;;;;;;5106630;27;20330;-75
2022/01/25 14:28:28;;;;;;;57.72;27.08;;;6.40;99.90;;;;;;5106902;27;20479;-75
2022/01/25 14:30:58;;;;;;;55.65;27.45;;;6.70;99.90;;;;;;5108632;27;20049;-75
2022/01/25 14:33:26;;;;;;;56.83;25.02;;;6.30;99.90;;;;;;5110209;27;20080;-76
2022/01/25 14:36:00;;;;;;;60.55;27.35;;;6.60;99.90;;;;;;5109383;27;20055;-75
2022/01/25 14:38:27;;;;;;;53.28;26.48;;;6.50;99.90;;;;;;5127027;27;20043;-75
2022/01/25 14:41:14;;;;;;;59.72;26.67;;;6.50;99.90;;;;;;5126864;27;20046;-75
2022/01/25 14:44:10;;;;;;;58.05;27.70;;;6.50;99.90;;;;;;5109528;27;20050;-75
2022/01/25 14:46:45;;;;;;;55.33;25.38;;;6.40;99.90;;;;;;5104807;27;20082;-75
2022/01/25 14:49:26;;;;;;;55.72;26.17;;;6.60;99.90;;;;;;5109934;27;20055;-75
2022/01/25 14:52:04;;;;;;;56.72;26.52;;;6.30;99.90;;;;;;5108758;27;20718;-74
2022/01/25 14:54:33;;;;;;;59.22;27.42;;;6.90;99.90;;;;;;5111004;27;20045;-75
2022/01/25 14:57:03;;;;;;;60.40;26.08;;;6.60;99.90;;;;;;5115644;27;20085;-75
2022/01/25 14:59:31;;;;;;;52.28;24.70;;;6.30;99.90;;;;;;5109763;27;20442;-75
2022/01/25 15:02:07;;;;;;;55.83;26.25;;;6.20;99.90;;;;;;5122946;27;20043;-75